createdAt,value
2022-10-27T00:01:22.755Z,100.25
2022-10-27T00:06:25.150Z,90.75
2022-10-27T00:11:27.463Z,88.65
2022-10-27T00:16:30.121Z,82.53
2022-10-27T00:21:32.390Z,74.80
2022-10-27T00:26:34.675Z,79.18
2022-10-27T00:31:37.022Z,66.38
2022-10-27T00:36:39.389Z,91.82
2022-10-27T00:41:42.653Z,73.90
2022-10-27T00:46:46.828Z,63.33
2022-10-27T00:51:51.655Z,75.80
2022-10-27T00:56:54.719Z,71.63
2022-10-27T01:07:04.325Z,70.20
2022-10-27T01:12:06.625Z,65.38
2022-10-27T01:17:34.467Z,72.25
2022-10-27T01:22:45.172Z,64.43
2022-10-27T01:28:26.367Z,67.03
2022-10-27T01:33:53.979Z,67.78
2022-10-27T01:39:18.191Z,66.75
2022-10-27T01:44:28.332Z,55.60
2022-10-27T01:49:37.478Z,53.05
2022-10-27T01:54:42.150Z,87.88
2022-10-27T01:59:53.906Z,74.38
2022-10-27T02:05:00.582Z,63.78
2022-10-27T02:10:10.993Z,59.20
2022-10-27T02:15:30.799Z,72.60
2022-10-27T02:20:42.061Z,74.47
2022-10-27T02:26:10.333Z,59.85
2022-10-27T02:31:14.268Z,61.70
2022-10-27T02:36:16.835Z,68.53
2022-10-27T02:41:19.159Z,71.97
2022-10-27T02:46:21.456Z,94.47
2022-10-27T02:51:23.730Z,94.13
2022-10-27T02:56:26.022Z,73.88
2022-10-27T03:01:28.597Z,71.72
2022-10-27T03:06:30.902Z,92.60
2022-10-27T03:11:33.269Z,98.10
2022-10-27T03:16:35.518Z,81.07
2022-10-27T03:21:37.795Z,69.20
2022-10-27T03:26:40.785Z,81.80
2022-10-27T03:31:43.127Z,70.40
2022-10-27T03:36:45.478Z,51.55
2022-10-27T03:41:47.750Z,56.58
2022-10-27T03:46:50.095Z,53.03
2022-10-27T03:51:52.354Z,52.13
2022-10-27T03:56:54.633Z,52.78
2022-10-27T04:01:57.038Z,51.58
2022-10-27T04:06:59.421Z,51.85
2022-10-27T04:12:01.683Z,58.67
2022-10-27T04:17:04.557Z,55.85
2022-10-27T04:22:06.900Z,50.47
2022-10-27T04:27:09.723Z,56.63
2022-10-27T04:32:12.125Z,53.55
2022-10-27T04:37:14.416Z,44.55
2022-10-27T04:42:16.721Z,39.95
2022-10-27T04:47:19.155Z,44.42
2022-10-27T04:52:21.514Z,46.20
2022-10-27T04:57:23.890Z,47.88
2022-10-27T05:02:26.307Z,42.25
2022-10-27T05:07:28.681Z,47.75
2022-10-27T05:12:31.019Z,43.25
2022-10-27T05:17:36.510Z,40.33
2022-10-27T05:22:39.599Z,39.88
2022-10-27T05:27:42.314Z,51.17
2022-10-27T05:32:46.532Z,50.78
2022-10-27T05:37:50.108Z,36.63
2022-10-27T05:42:55.103Z,40.58
2022-10-27T05:47:59.737Z,37.17
2022-10-27T05:53:02.621Z,37.40
2022-10-27T05:58:06.655Z,53.25
2022-10-27T06:03:17.341Z,53.22
2022-10-27T06:08:19.877Z,61.28
2022-10-27T06:13:22.401Z,51.22
2022-10-27T06:18:24.748Z,72.68
2022-10-27T06:23:27.096Z,63.85
2022-10-27T06:28:29.455Z,45.08
2022-10-27T06:33:31.887Z,43.42
2022-10-27T06:38:34.473Z,52.28
2022-10-27T06:43:37.055Z,50.42
2022-10-27T06:48:39.394Z,41.70
2022-10-27T06:53:41.937Z,46.92
2022-10-27T06:58:44.271Z,46.20
2022-10-27T07:03:46.774Z,57.58
2022-10-27T07:08:50.167Z,54.05
2022-10-27T07:13:52.602Z,53.97
2022-10-27T07:18:54.910Z,52.45
2022-10-27T07:23:57.275Z,54.03
2022-10-27T07:28:59.593Z,48.53
2022-10-27T07:39:09.127Z,54.08
2022-10-27T07:44:11.532Z,49.75
2022-10-27T07:49:13.876Z,52.17
2022-10-27T07:54:16.867Z,64.32
2022-10-27T07:59:19.353Z,50.22
2022-10-27T08:04:21.736Z,57.47
2022-10-27T08:09:24.066Z,56.28
2022-10-27T08:14:28.257Z,59.53
2022-10-27T08:19:30.630Z,63.55
2022-10-27T08:24:33.000Z,60.78
2022-10-27T08:29:35.274Z,54.50
2022-10-27T08:34:37.619Z,67.70
2022-10-27T08:39:40.002Z,61.25
2022-10-27T08:44:59.385Z,56.88
2022-10-27T08:50:11.168Z,51.95
2022-10-27T08:55:13.442Z,61.83
2022-10-27T09:00:16.009Z,48.28
2022-10-27T09:05:18.494Z,52.85
2022-10-27T09:10:42.868Z,52.63
2022-10-27T09:15:45.719Z,60.08
2022-10-27T09:20:55.031Z,54.55
2022-10-27T09:25:59.634Z,59.55
2022-10-27T09:31:03.153Z,47.13
2022-10-27T09:36:15.314Z,52.90
2022-10-27T09:41:17.891Z,45.42
2022-10-27T09:46:25.528Z,43.83
2022-10-27T09:56:32.827Z,49.63
2022-10-27T10:01:44.064Z,41.90
2022-10-27T10:06:59.843Z,45.50
2022-10-27T10:12:24.101Z,43.10
2022-10-27T10:17:28.088Z,41.25
2022-10-27T10:22:37.963Z,40.65
2022-10-27T10:27:47.161Z,36.78
2022-10-27T10:32:52.054Z,37.20
2022-10-27T10:37:54.890Z,39.33
2022-10-27T10:43:05.898Z,40.97
2022-10-27T10:48:29.819Z,36.25
2022-10-27T10:53:34.683Z,38.95
2022-10-27T10:58:37.380Z,43.55
2022-10-27T11:03:45.415Z,39.85
2022-10-27T11:09:00.010Z,36.72
2022-10-27T11:14:11.376Z,45.08
2022-10-27T11:19:17.471Z,39.67
2022-10-27T11:24:23.955Z,34.63
2022-10-27T11:29:54.430Z,37.50
2022-10-27T11:35:04.034Z,32.92
2022-10-27T11:40:11.844Z,32.60
2022-10-27T11:45:21.100Z,36.35
2022-10-27T11:50:48.614Z,34.00
2022-10-27T11:56:29.120Z,33.30
2022-10-27T12:01:50.066Z,34.40
2022-10-27T12:07:11.270Z,27.98
2022-10-27T12:12:20.029Z,29.23
2022-10-27T12:17:31.817Z,25.88
2022-10-27T12:22:37.507Z,27.45
2022-10-27T12:27:48.020Z,21.15
2022-10-27T12:33:11.799Z,21.83
2022-10-27T12:38:28.341Z,21.10
2022-10-27T12:43:45.713Z,28.60
2022-10-27T12:49:11.070Z,24.70
2022-10-27T12:54:19.866Z,26.45
2022-10-27T12:59:51.715Z,24.90
2022-10-27T13:05:14.040Z,29.17
2022-10-27T13:10:22.981Z,26.48
2022-10-27T13:15:54.144Z,30.40
2022-10-27T13:21:07.458Z,27.70
2022-10-27T13:26:09.722Z,30.00
2022-10-27T13:31:23.910Z,30.52
2022-10-27T13:36:27.968Z,50.55
2022-10-27T13:41:51.837Z,38.50
2022-10-27T13:47:02.974Z,36.35
2022-10-27T13:52:26.186Z,36.97
2022-10-27T13:57:51.374Z,34.72
2022-10-27T14:03:12.424Z,30.23
2022-10-27T14:08:26.392Z,31.38
2022-10-27T14:13:31.431Z,31.58
2022-10-27T14:18:36.793Z,26.75
2022-10-27T14:23:39.253Z,29.90
2022-10-27T14:28:47.705Z,31.50
2022-10-27T14:33:51.106Z,31.98
2022-10-27T14:39:06.771Z,31.50
2022-10-27T14:44:16.657Z,25.17
2022-10-27T14:49:34.902Z,26.30
2022-10-27T14:54:38.141Z,30.58
2022-10-27T14:59:45.862Z,29.15
2022-10-27T15:04:48.217Z,31.85
2022-10-27T15:09:53.158Z,31.48
2022-10-27T15:14:56.394Z,30.75
2022-10-27T15:20:01.588Z,54.67
2022-10-27T15:25:05.088Z,53.60
2022-10-27T15:30:08.630Z,40.90
2022-10-27T15:35:32.553Z,58.75
2022-10-27T15:40:41.290Z,50.45
2022-10-27T15:45:44.887Z,38.15
2022-10-27T15:51:04.711Z,37.08
2022-10-27T15:56:33.084Z,43.75
2022-10-27T16:01:35.716Z,39.65
2022-10-27T16:06:38.176Z,38.35
2022-10-27T16:11:42.301Z,44.20
2022-10-27T16:16:46.589Z,45.72
2022-10-27T16:21:48.904Z,44.75
2022-10-27T16:26:53.085Z,45.85
2022-10-27T16:31:55.715Z,43.22
2022-10-27T16:36:58.059Z,41.15
2022-10-27T16:42:00.471Z,50.97
2022-10-27T16:47:07.297Z,53.15
2022-10-27T16:52:10.234Z,36.10
2022-10-27T16:57:12.616Z,52.05
2022-10-27T17:02:14.980Z,55.63
2022-10-27T17:07:17.835Z,53.50
2022-10-27T17:12:20.296Z,54.17
2022-10-27T17:17:23.394Z,48.10
2022-10-27T17:22:25.697Z,39.15
2022-10-27T17:27:28.024Z,41.22
2022-10-27T17:32:30.411Z,44.90
2022-10-27T17:37:32.780Z,56.25
2022-10-27T17:42:35.079Z,45.60
2022-10-27T17:47:37.397Z,52.88
2022-10-27T17:52:39.981Z,47.40
2022-10-27T17:57:42.362Z,46.15
2022-10-27T18:02:44.767Z,46.53
2022-10-27T18:07:47.090Z,56.47
2022-10-27T18:12:49.837Z,67.80
2022-10-27T18:17:52.393Z,76.80
2022-10-27T18:22:55.093Z,69.25
2022-10-27T18:27:57.683Z,58.70
2022-10-27T18:33:00.275Z,59.03
2022-10-27T18:38:02.589Z,59.03
2022-10-27T18:43:05.168Z,63.33
2022-10-27T18:48:07.489Z,58.25
2022-10-27T18:53:11.623Z,66.05
2022-10-27T18:58:13.894Z,68.68
2022-10-27T19:03:17.615Z,54.22
2022-10-27T19:08:21.246Z,47.25
2022-10-27T19:13:23.787Z,52.05
2022-10-27T19:18:26.114Z,62.97
2022-10-27T19:23:28.999Z,77.60
2022-10-27T19:28:35.558Z,78.07
2022-10-27T19:33:39.190Z,54.13
2022-10-27T19:38:41.985Z,75.50
2022-10-27T19:43:47.295Z,59.15
2022-10-27T19:48:57.217Z,66.82
2022-10-27T19:59:03.740Z,74.40
2022-10-27T20:04:11.259Z,62.90
2022-10-27T20:14:19.303Z,70.13
2022-10-27T20:19:22.850Z,70.55
2022-10-27T20:24:25.273Z,56.78
2022-10-27T20:29:30.629Z,68.32
2022-10-27T20:34:39.385Z,69.30
2022-10-27T20:39:42.121Z,78.38
2022-10-27T20:44:44.517Z,85.68
2022-10-27T20:49:46.809Z,91.47
2022-10-27T20:54:49.129Z,86.45
2022-10-27T20:59:51.501Z,79.82
2022-10-27T21:04:53.868Z,69.47
2022-10-27T21:09:56.194Z,67.68
2022-10-27T21:14:58.632Z,52.47
2022-10-27T21:20:00.919Z,50.33
2022-10-27T21:25:03.260Z,68.20
2022-10-27T21:30:05.983Z,67.82
2022-10-27T21:35:08.681Z,71.70
2022-10-27T21:40:12.193Z,93.95
2022-10-27T21:45:14.791Z,76.05
2022-10-27T21:50:17.133Z,55.97
2022-10-27T21:55:19.599Z,68.47
2022-10-27T22:00:21.947Z,71.03
2022-10-27T22:05:24.302Z,61.08
2022-10-27T22:10:26.625Z,61.08
2022-10-27T22:15:29.086Z,61.67
2022-10-27T22:20:31.332Z,52.33
2022-10-27T22:25:38.265Z,50.75
2022-10-27T22:30:40.827Z,58.45
2022-10-27T22:35:43.142Z,58.75
2022-10-27T22:40:45.592Z,45.85
2022-10-27T22:45:55.003Z,64.70
2022-10-27T22:51:08.928Z,64.63
2022-10-27T22:56:22.757Z,70.32
2022-10-27T23:01:28.120Z,62.45
2022-10-27T23:06:33.580Z,59.00
2022-10-27T23:11:36.791Z,102.93
2022-10-27T23:16:39.205Z,78.13
2022-10-27T23:21:41.552Z,63.88
2022-10-27T23:26:43.891Z,74.20
2022-10-27T23:31:46.226Z,71.75
2022-10-27T23:36:48.621Z,61.67
2022-10-27T23:41:50.963Z,52.78
2022-10-27T23:46:53.250Z,60.58
2022-10-27T23:51:55.546Z,76.07
2022-10-27T23:56:57.885Z,81.03
